sensor_id;sensor_type;location;lat;lon;timestamp;P1;durP1;ratioP1;P2;durP2;ratioP2
64641;SDS011;59936;51.490;5.436;2022-07-23T00:00:05;12.47;;;7.47;;
64641;SDS011;59936;51.490;5.436;2022-07-23T00:00:13;12.43;;;7.36;;
64641;SDS011;59936;51.490;5.436;2022-07-23T00:00:20;12.86;;;7.48;;
64641;SDS011;59936;51.490;5.436;2022-07-23T00:00:26;11.85;;;7.57;;
64641;SDS011;59936;51.490;5.436;2022-07-23T00:00:31;11.33;;;7.63;;
64641;SDS011;59936;51.490;5.436;2022-07-23T00:00:37;12.30;;;7.63;;
64641;SDS011;59936;51.490;5.436;2022-07-23T00:00:43;11.82;;;7.68;;
64641;SDS011;59936;51.490;5.436;2022-07-23T00:00:48;11.40;;;7.60;;
64641;SDS011;59936;51.490;5.436;2022-07-23T00:00:54;11.50;;;7.55;;
64641;SDS011;59936;51.490;5.436;2022-07-23T00:00:59;11.03;;;7.43;;
64641;SDS011;59936;51.490;5.436;2022-07-23T00:01:05;10.63;;;7.15;;
64641;SDS011;59936;51.490;5.436;2022-07-23T00:01:10;10.07;;;7.17;;
64641;SDS011;59936;51.490;5.436;2022-07-23T00:01:15;10.00;;;7.33;;
64641;SDS011;59936;51.490;5.436;2022-07-23T00:01:21;10.65;;;7.38;;
64641;SDS011;59936;51.490;5.436;2022-07-23T00:01:27;11.10;;;7.40;;
64641;SDS011;59936;51.490;5.436;2022-07-23T00:01:33;11.70;;;7.70;;
64641;SDS011;59936;51.490;5.436;2022-07-23T00:01:39;11.70;;;7.85;;
64641;SDS011;59936;51.490;5.436;2022-07-23T00:01:46;11.92;;;7.92;;
64641;SDS011;59936;51.490;5.436;2022-07-23T00:01:52;11.43;;;7.90;;
64641;SDS011;59936;51.490;5.436;2022-07-23T00:01:58;11.88;;;8.00;;
64641;SDS011;59936;51.490;5.436;2022-07-23T00:02:03;12.13;;;8.03;;
64641;SDS011;59936;51.490;5.436;2022-07-23T00:02:08;12.17;;;8.03;;
64641;SDS011;59936;51.490;5.436;2022-07-23T00:02:14;11.70;;;7.95;;
64641;SDS011;59936;51.490;5.436;2022-07-23T00:02:19;11.20;;;7.93;;
64641;SDS011;59936;51.490;5.436;2022-07-23T00:02:24;11.17;;;7.90;;
64641;SDS011;59936;51.490;5.436;2022-07-23T00:02:30;10.40;;;7.80;;
64641;SDS011;59936;51.490;5.436;2022-07-23T00:02:35;10.27;;;7.80;;
64641;SDS011;59936;51.490;5.436;2022-07-23T00:02:41;11.20;;;7.93;;
64641;SDS011;59936;51.490;5.436;2022-07-23T00:02:47;12.03;;;8.00;;
64641;SDS011;59936;51.490;5.436;2022-07-23T00:02:53;12.15;;;8.10;;
64641;SDS011;59936;51.490;5.436;2022-07-23T00:02:58;11.87;;;8.00;;
64641;SDS011;59936;51.490;5.436;2022-07-23T00:03:04;11.90;;;8.00;;
64641;SDS011;59936;51.490;5.436;2022-07-23T00:03:10;11.88;;;7.90;;
64641;SDS011;59936;51.490;5.436;2022-07-23T00:03:15;11.35;;;7.68;;
64641;SDS011;59936;51.490;5.436;2022-07-23T00:03:21;11.20;;;7.63;;
64641;SDS011;59936;51.490;5.436;2022-07-23T00:03:26;10.53;;;7.60;;
64641;SDS011;59936;51.490;5.436;2022-07-23T00:03:32;10.48;;;7.57;;
64641;SDS011;59936;51.490;5.436;2022-07-23T00:03:37;10.07;;;7.43;;
64641;SDS011;59936;51.490;5.436;2022-07-23T00:03:42;9.57;;;7.47;;
64641;SDS011;59936;51.490;5.436;2022-07-23T00:03:48;9.48;;;7.60;;
64641;SDS011;59936;51.490;5.436;2022-07-23T00:03:54;10.23;;;7.55;;
64641;SDS011;59936;51.490;5.436;2022-07-23T00:04:01;10.24;;;7.60;;
64641;SDS011;59936;51.490;5.436;2022-07-23T00:04:06;10.38;;;7.53;;
64641;SDS011;59936;51.490;5.436;2022-07-23T00:04:12;10.63;;;7.73;;
64641;SDS011;59936;51.490;5.436;2022-07-23T00:04:17;11.77;;;7.87;;
64641;SDS011;59936;51.490;5.436;2022-07-23T00:04:23;12.27;;;8.00;;
64641;SDS011;59936;51.490;5.436;2022-07-23T00:04:28;12.97;;;8.03;;
64641;SDS011;59936;51.490;5.436;2022-07-23T00:04:33;13.57;;;8.40;;
64641;SDS011;59936;51.490;5.436;2022-07-23T00:04:39;12.77;;;8.40;;
64641;SDS011;59936;51.490;5.436;2022-07-23T00:04:44;12.77;;;8.20;;
64641;SDS011;59936;51.490;5.436;2022-07-23T00:04:50;12.07;;;8.05;;
64641;SDS011;59936;51.490;5.436;2022-07-23T00:04:55;11.83;;;8.00;;
64641;SDS011;59936;51.490;5.436;2022-07-23T00:05:00;11.80;;;7.93;;
64641;SDS011;59936;51.490;5.436;2022-07-23T00:05:06;12.20;;;8.07;;
64641;SDS011;59936;51.490;5.436;2022-07-23T00:05:12;12.17;;;8.30;;
64641;SDS011;59936;51.490;5.436;2022-07-23T00:05:18;11.18;;;8.45;;
64641;SDS011;59936;51.490;5.436;2022-07-23T00:05:23;10.77;;;8.43;;
64641;SDS011;59936;51.490;5.436;2022-07-23T00:05:29;10.45;;;8.48;;
64641;SDS011;59936;51.490;5.436;2022-07-23T00:05:34;9.43;;;8.40;;
64641;SDS011;59936;51.490;5.436;2022-07-23T00:05:40;9.45;;;8.20;;
64641;SDS011;59936;51.490;5.436;2022-07-23T00:05:45;9.32;;;7.95;;
64641;SDS011;59936;51.490;5.436;2022-07-23T00:05:51;8.87;;;7.77;;
64641;SDS011;59936;51.490;5.436;2022-07-23T00:05:57;8.90;;;7.80;;
64641;SDS011;59936;51.490;5.436;2022-07-23T00:06:02;9.73;;;7.73;;
64641;SDS011;59936;51.490;5.436;2022-07-23T00:06:07;9.68;;;7.72;;
64641;SDS011;59936;51.490;5.436;2022-07-23T00:06:13;9.80;;;7.90;;
64641;SDS011;59936;51.490;5.436;2022-07-23T00:06:18;10.35;;;8.00;;
64641;SDS011;59936;51.490;5.436;2022-07-23T00:06:24;10.73;;;8.07;;
64641;SDS011;59936;51.490;5.436;2022-07-23T00:06:30;10.50;;;8.05;;
64641;SDS011;59936;51.490;5.436;2022-07-23T00:06:35;10.63;;;8.17;;
64641;SDS011;59936;51.490;5.436;2022-07-23T00:06:40;11.32;;;8.15;;
64641;SDS011;59936;51.490;5.436;2022-07-23T00:06:46;11.87;;;8.27;;
64641;SDS011;59936;51.490;5.436;2022-07-23T00:06:51;11.07;;;8.30;;
64641;SDS011;59936;51.490;5.436;2022-07-23T00:06:57;10.97;;;8.20;;
64641;SDS011;59936;51.490;5.436;2022-07-23T00:07:02;11.00;;;8.03;;
64641;SDS011;59936;51.490;5.436;2022-07-23T00:07:07;11.13;;;8.00;;
64641;SDS011;59936;51.490;5.436;2022-07-23T00:07:13;11.30;;;8.00;;
64641;SDS011;59936;51.490;5.436;2022-07-23T00:07:18;11.38;;;7.90;;
64641;SDS011;59936;51.490;5.436;2022-07-23T00:07:24;13.03;;;8.03;;
64641;SDS011;59936;51.490;5.436;2022-07-23T00:07:29;13.10;;;8.18;;
64641;SDS011;59936;51.490;5.436;2022-07-23T00:07:35;13.13;;;8.30;;
64641;SDS011;59936;51.490;5.436;2022-07-23T00:07:40;12.63;;;8.17;;
64641;SDS011;59936;51.490;5.436;2022-07-23T00:07:46;11.93;;;7.97;;
64641;SDS011;59936;51.490;5.436;2022-07-23T00:07:51;10.63;;;7.87;;
64641;SDS011;59936;51.490;5.436;2022-07-23T00:07:57;11.25;;;7.72;;
64641;SDS011;59936;51.490;5.436;2022-07-23T00:08:02;11.07;;;7.67;;
64641;SDS011;59936;51.490;5.436;2022-07-23T00:08:08;11.73;;;7.63;;
64641;SDS011;59936;51.490;5.436;2022-07-23T00:08:13;13.20;;;7.87;;
64641;SDS011;59936;51.490;5.436;2022-07-23T00:08:18;14.68;;;8.10;;
64641;SDS011;59936;51.490;5.436;2022-07-23T00:08:24;14.48;;;8.15;;
64641;SDS011;59936;51.490;5.436;2022-07-23T00:08:30;13.40;;;8.10;;
64641;SDS011;59936;51.490;5.436;2022-07-23T00:08:35;14.03;;;8.20;;
64641;SDS011;59936;51.490;5.436;2022-07-23T00:08:40;13.70;;;8.25;;
64641;SDS011;59936;51.490;5.436;2022-07-23T00:08:47;12.90;;;8.25;;
64641;SDS011;59936;51.490;5.436;2022-07-23T00:08:52;13.25;;;8.23;;
64641;SDS011;59936;51.490;5.436;2022-07-23T00:08:58;13.03;;;8.30;;
64641;SDS011;59936;51.490;5.436;2022-07-23T00:09:03;12.48;;;8.40;;
64641;SDS011;59936;51.490;5.436;2022-07-23T00:09:08;12.03;;;8.40;;
64641;SDS011;59936;51.490;5.436;2022-07-23T00:09:14;11.80;;;8.20;;
64641;SDS011;59936;51.490;5.436;2022-07-23T00:09:19;10.73;;;8.20;;
64641;SDS011;59936;51.490;5.436;2022-07-23T00:09:25;10.60;;;8.20;;
64641;SDS011;59936;51.490;5.436;2022-07-23T00:09:30;10.03;;;8.07;;
64641;SDS011;59936;51.490;5.436;2022-07-23T00:09:36;10.60;;;8.07;;
64641;SDS011;59936;51.490;5.436;2022-07-23T00:09:41;10.50;;;8.10;;
64641;SDS011;59936;51.490;5.436;2022-07-23T00:09:47;10.43;;;8.10;;
64641;SDS011;59936;51.490;5.436;2022-07-23T00:09:52;10.80;;;8.20;;
64641;SDS011;59936;51.490;5.436;2022-07-23T00:09:57;11.17;;;8.20;;
64641;SDS011;59936;51.490;5.436;2022-07-23T00:10:03;11.70;;;8.20;;
64641;SDS011;59936;51.490;5.436;2022-07-23T00:10:09;11.28;;;8.10;;
64641;SDS011;59936;51.490;5.436;2022-07-23T00:10:15;11.57;;;8.18;;
64641;SDS011;59936;51.490;5.436;2022-07-23T00:10:20;11.63;;;8.20;;
64641;SDS011;59936;51.490;5.436;2022-07-23T00:10:26;10.90;;;8.10;;
64641;SDS011;59936;51.490;5.436;2022-07-23T00:10:31;10.18;;;8.07;;
64641;SDS011;59936;51.490;5.436;2022-07-23T00:10:37;10.55;;;8.02;;
64641;SDS011;59936;51.490;5.436;2022-07-23T00:10:43;10.50;;;8.17;;
64641;SDS011;59936;51.490;5.436;2022-07-23T00:10:48;11.43;;;8.20;;
64641;SDS011;59936;51.490;5.436;2022-07-23T00:10:54;11.80;;;8.30;;
64641;SDS011;59936;51.490;5.436;2022-07-23T00:11:00;12.95;;;8.30;;
64641;SDS011;59936;51.490;5.436;2022-07-23T00:11:06;13.40;;;8.43;;
64641;SDS011;59936;51.490;5.436;2022-07-23T00:11:11;12.60;;;8.40;;
64641;SDS011;59936;51.490;5.436;2022-07-23T00:11:17;11.50;;;8.50;;
64641;SDS011;59936;51.490;5.436;2022-07-23T00:11:23;12.80;;;8.47;;
64641;SDS011;59936;51.490;5.436;2022-07-23T00:11:28;12.23;;;8.47;;
64641;SDS011;59936;51.490;5.436;2022-07-23T00:11:34;12.27;;;8.50;;
64641;SDS011;59936;51.490;5.436;2022-07-23T00:11:39;12.55;;;8.63;;
64641;SDS011;59936;51.490;5.436;2022-07-23T00:11:44;13.67;;;8.60;;
64641;SDS011;59936;51.490;5.436;2022-07-23T00:11:50;14.30;;;8.63;;
64641;SDS011;59936;51.490;5.436;2022-07-23T00:11:55;14.15;;;8.60;;
64641;SDS011;59936;51.490;5.436;2022-07-23T00:12:00;13.97;;;8.57;;
64641;SDS011;59936;51.490;5.436;2022-07-23T00:12:06;14.20;;;8.65;;
64641;SDS011;59936;51.490;5.436;2022-07-23T00:12:11;14.77;;;8.60;;
64641;SDS011;59936;51.490;5.436;2022-07-23T00:12:17;14.17;;;8.60;;
64641;SDS011;59936;51.490;5.436;2022-07-23T00:12:22;12.93;;;8.73;;
64641;SDS011;59936;51.490;5.436;2022-07-23T00:12:28;12.05;;;8.75;;
64641;SDS011;59936;51.490;5.436;2022-07-23T00:12:33;12.07;;;8.67;;
64641;SDS011;59936;51.490;5.436;2022-07-23T00:12:39;11.17;;;8.50;;
64641;SDS011;59936;51.490;5.436;2022-07-23T00:12:46;10.90;;;8.45;;
64641;SDS011;59936;51.490;5.436;2022-07-23T00:12:51;10.20;;;8.20;;
64641;SDS011;59936;51.490;5.436;2022-07-23T00:12:56;10.37;;;8.10;;
64641;SDS011;59936;51.490;5.436;2022-07-23T00:13:02;11.25;;;8.10;;
64641;SDS011;59936;51.490;5.436;2022-07-23T00:13:07;12.40;;;8.10;;
64641;SDS011;59936;51.490;5.436;2022-07-23T00:13:13;11.60;;;8.15;;
64641;SDS011;59936;51.490;5.436;2022-07-23T00:13:18;11.60;;;8.10;;
64641;SDS011;59936;51.490;5.436;2022-07-23T00:13:24;12.27;;;8.13;;
64641;SDS011;59936;51.490;5.436;2022-07-23T00:13:29;13.00;;;8.20;;
64641;SDS011;59936;51.490;5.436;2022-07-23T00:13:34;12.17;;;8.30;;
64641;SDS011;59936;51.490;5.436;2022-07-23T00:13:40;12.32;;;8.35;;
64641;SDS011;59936;51.490;5.436;2022-07-23T00:13:46;13.07;;;8.35;;
64641;SDS011;59936;51.490;5.436;2022-07-23T00:13:51;12.80;;;8.40;;
64641;SDS011;59936;51.490;5.436;2022-07-23T00:13:58;12.18;;;8.40;;
64641;SDS011;59936;51.490;5.436;2022-07-23T00:14:03;10.47;;;8.33;;
64641;SDS011;59936;51.490;5.436;2022-07-23T00:14:09;10.67;;;8.27;;
64641;SDS011;59936;51.490;5.436;2022-07-23T00:14:14;10.55;;;8.30;;
64641;SDS011;59936;51.490;5.436;2022-07-23T00:14:19;10.67;;;8.23;;
64641;SDS011;59936;51.490;5.436;2022-07-23T00:14:25;10.93;;;8.18;;
64641;SDS011;59936;51.490;5.436;2022-07-23T00:14:30;11.13;;;8.17;;
64641;SDS011;59936;51.490;5.436;2022-07-23T00:14:36;10.73;;;8.07;;
64641;SDS011;59936;51.490;5.436;2022-07-23T00:14:41;11.17;;;7.97;;
64641;SDS011;59936;51.490;5.436;2022-07-23T00:14:47;11.35;;;8.05;;
64641;SDS011;59936;51.490;5.436;2022-07-23T00:14:52;11.83;;;8.30;;
64641;SDS011;59936;51.490;5.436;2022-07-23T00:14:58;11.65;;;8.27;;
64641;SDS011;59936;51.490;5.436;2022-07-23T00:15:04;12.43;;;8.50;;
64641;SDS011;59936;51.490;5.436;2022-07-23T00:15:11;11.73;;;8.55;;
64641;SDS011;59936;51.490;5.436;2022-07-23T00:15:17;10.77;;;8.50;;
64641;SDS011;59936;51.490;5.436;2022-07-23T00:15:23;10.50;;;8.27;;
64641;SDS011;59936;51.490;5.436;2022-07-23T00:15:29;11.35;;;8.35;;
64641;SDS011;59936;51.490;5.436;2022-07-23T00:15:37;12.33;;;8.10;;
64641;SDS011;59936;51.490;5.436;2022-07-23T00:15:42;12.10;;;8.07;;
64641;SDS011;59936;51.490;5.436;2022-07-23T00:15:48;12.15;;;8.02;;
64641;SDS011;59936;51.490;5.436;2022-07-23T00:15:53;11.73;;;7.93;;
64641;SDS011;59936;51.490;5.436;2022-07-23T00:15:59;10.55;;;7.80;;
64641;SDS011;59936;51.490;5.436;2022-07-23T00:16:04;9.20;;;7.90;;
64641;SDS011;59936;51.490;5.436;2022-07-23T00:16:10;9.73;;;8.00;;
64641;SDS011;59936;51.490;5.436;2022-07-23T00:16:16;10.05;;;8.20;;
64641;SDS011;59936;51.490;5.436;2022-07-23T00:16:21;10.20;;;8.30;;
64641;SDS011;59936;51.490;5.436;2022-07-23T00:16:27;10.07;;;8.35;;
64641;SDS011;59936;51.490;5.436;2022-07-23T00:16:32;11.17;;;8.37;;
64641;SDS011;59936;51.490;5.436;2022-07-23T00:16:37;11.03;;;8.40;;
64641;SDS011;59936;51.490;5.436;2022-07-23T00:16:43;11.43;;;8.45;;
64641;SDS011;59936;51.490;5.436;2022-07-23T00:16:48;11.10;;;8.27;;
64641;SDS011;59936;51.490;5.436;2022-07-23T00:16:54;11.90;;;8.38;;
64641;SDS011;59936;51.490;5.436;2022-07-23T00:16:59;11.73;;;8.47;;
64641;SDS011;59936;51.490;5.436;2022-07-23T00:17:04;11.47;;;8.50;;
64641;SDS011;59936;51.490;5.436;2022-07-23T00:17:10;11.40;;;8.45;;
64641;SDS011;59936;51.490;5.436;2022-07-23T00:17:15;11.53;;;8.47;;
64641;SDS011;59936;51.490;5.436;2022-07-23T00:17:21;11.77;;;8.63;;
64641;SDS011;59936;51.490;5.436;2022-07-23T00:17:26;11.90;;;8.60;;
64641;SDS011;59936;51.490;5.436;2022-07-23T00:17:31;12.05;;;8.55;;
64641;SDS011;59936;51.490;5.436;2022-07-23T00:17:37;12.10;;;8.40;;
64641;SDS011;59936;51.490;5.436;2022-07-23T00:17:42;11.77;;;8.43;;
64641;SDS011;59936;51.490;5.436;2022-07-23T00:17:48;11.83;;;8.50;;
64641;SDS011;59936;51.490;5.436;2022-07-23T00:17:53;11.70;;;8.63;;
64641;SDS011;59936;51.490;5.436;2022-07-23T00:17:59;10.87;;;8.70;;
64641;SDS011;59936;51.490;5.436;2022-07-23T00:18:04;11.20;;;8.87;;
64641;SDS011;59936;51.490;5.436;2022-07-23T00:18:10;11.27;;;8.82;;
64641;SDS011;59936;51.490;5.436;2022-07-23T00:18:15;12.70;;;8.80;;
64641;SDS011;59936;51.490;5.436;2022-07-23T00:18:21;12.88;;;8.50;;
64641;SDS011;59936;51.490;5.436;2022-07-23T00:18:27;12.25;;;8.27;;
64641;SDS011;59936;51.490;5.436;2022-07-23T00:18:32;11.85;;;8.25;;
64641;SDS011;59936;51.490;5.436;2022-07-23T00:18:38;11.87;;;8.13;;
64641;SDS011;59936;51.490;5.436;2022-07-23T00:18:43;10.77;;;7.97;;
64641;SDS011;59936;51.490;5.436;2022-07-23T00:18:49;9.95;;;7.88;;
64641;SDS011;59936;51.490;5.436;2022-07-23T00:18:54;10.87;;;8.10;;
64641;SDS011;59936;51.490;5.436;2022-07-23T00:18:59;11.40;;;8.07;;
64641;SDS011;59936;51.490;5.436;2022-07-23T00:19:07;11.27;;;8.27;;
64641;SDS011;59936;51.490;5.436;2022-07-23T00:19:13;12.05;;;8.43;;
64641;SDS011;59936;51.490;5.436;2022-07-23T00:19:19;11.57;;;8.77;;
64641;SDS011;59936;51.490;5.436;2022-07-23T00:19:24;11.13;;;8.83;;
64641;SDS011;59936;51.490;5.436;2022-07-23T00:19:30;10.90;;;9.10;;
64641;SDS011;59936;51.490;5.436;2022-07-23T00:19:35;10.87;;;9.13;;
64641;SDS011;59936;51.490;5.436;2022-07-23T00:19:40;10.27;;;9.00;;
64641;SDS011;59936;51.490;5.436;2022-07-23T00:19:46;9.90;;;8.83;;
64641;SDS011;59936;51.490;5.436;2022-07-23T00:19:51;9.67;;;8.63;;
64641;SDS011;59936;51.490;5.436;2022-07-23T00:19:58;9.62;;;8.44;;
64641;SDS011;59936;51.490;5.436;2022-07-23T00:20:04;9.65;;;8.27;;
64641;SDS011;59936;51.490;5.436;2022-07-23T00:20:11;10.58;;;8.44;;
64641;SDS011;59936;51.490;5.436;2022-07-23T00:20:16;10.82;;;8.50;;
64641;SDS011;59936;51.490;5.436;2022-07-23T00:20:22;11.05;;;8.38;;
64641;SDS011;59936;51.490;5.436;2022-07-23T00:20:28;11.07;;;8.50;;
64641;SDS011;59936;51.490;5.436;2022-07-23T00:20:33;11.77;;;8.43;;
64641;SDS011;59936;51.490;5.436;2022-07-23T00:20:38;10.60;;;8.32;;
64641;SDS011;59936;51.490;5.436;2022-07-23T00:20:44;10.33;;;8.27;;
64641;SDS011;59936;51.490;5.436;2022-07-23T00:20:50;10.30;;;8.30;;
64641;SDS011;59936;51.490;5.436;2022-07-23T00:20:55;10.10;;;8.18;;
64641;SDS011;59936;51.490;5.436;2022-07-23T00:21:01;9.83;;;8.10;;
64641;SDS011;59936;51.490;5.436;2022-07-23T00:21:07;10.38;;;8.15;;
64641;SDS011;59936;51.490;5.436;2022-07-23T00:21:12;10.82;;;8.15;;
64641;SDS011;59936;51.490;5.436;2022-07-23T00:21:18;10.90;;;8.10;;
64641;SDS011;59936;51.490;5.436;2022-07-23T00:21:23;10.97;;;8.10;;
64641;SDS011;59936;51.490;5.436;2022-07-23T00:21:28;10.63;;;8.18;;
64641;SDS011;59936;51.490;5.436;2022-07-23T00:21:34;10.57;;;8.13;;
64641;SDS011;59936;51.490;5.436;2022-07-23T00:21:39;10.55;;;8.23;;
64641;SDS011;59936;51.490;5.436;2022-07-23T00:21:45;12.83;;;8.27;;
64641;SDS011;59936;51.490;5.436;2022-07-23T00:21:50;13.03;;;8.50;;
64641;SDS011;59936;51.490;5.436;2022-07-23T00:21:55;14.13;;;8.65;;
64641;SDS011;59936;51.490;5.436;2022-07-23T00:22:01;15.30;;;8.87;;
64641;SDS011;59936;51.490;5.436;2022-07-23T00:22:06;16.08;;;9.05;;
64641;SDS011;59936;51.490;5.436;2022-07-23T00:22:12;15.87;;;9.30;;
64641;SDS011;59936;51.490;5.436;2022-07-23T00:22:17;15.00;;;9.25;;
64641;SDS011;59936;51.490;5.436;2022-07-23T00:22:22;14.07;;;8.97;;
64641;SDS011;59936;51.490;5.436;2022-07-23T00:22:28;12.95;;;8.85;;
64641;SDS011;59936;51.490;5.436;2022-07-23T00:22:34;11.80;;;8.73;;
64641;SDS011;59936;51.490;5.436;2022-07-23T00:22:48;10.35;;;8.43;;
64641;SDS011;59936;51.490;5.436;2022-07-23T00:22:59;10.46;;;8.54;;
64641;SDS011;59936;51.490;5.436;2022-07-23T00:23:04;11.70;;;8.77;;
64641;SDS011;59936;51.490;5.436;2022-07-23T00:23:10;11.03;;;8.90;;
64641;SDS011;59936;51.490;5.436;2022-07-23T00:23:15;10.75;;;8.88;;
64641;SDS011;59936;51.490;5.436;2022-07-23T00:23:20;10.83;;;8.87;;
64641;SDS011;59936;51.490;5.436;2022-07-23T00:23:26;10.53;;;8.90;;
64641;SDS011;59936;51.490;5.436;2022-07-23T00:23:33;9.90;;;8.90;;
64641;SDS011;59936;51.490;5.436;2022-07-23T00:23:39;9.80;;;8.80;;
64641;SDS011;59936;51.490;5.436;2022-07-23T00:23:44;10.30;;;8.80;;
64641;SDS011;59936;51.490;5.436;2022-07-23T00:23:50;11.00;;;8.80;;
64641;SDS011;59936;51.490;5.436;2022-07-23T00:23:55;11.73;;;9.00;;
64641;SDS011;59936;51.490;5.436;2022-07-23T00:24:00;11.43;;;8.77;;
64641;SDS011;59936;51.490;5.436;2022-07-23T00:24:06;11.33;;;8.73;;
64641;SDS011;59936;51.490;5.436;2022-07-23T00:24:11;11.43;;;8.88;;
64641;SDS011;59936;51.490;5.436;2022-07-23T00:24:17;10.83;;;8.80;;
64641;SDS011;59936;51.490;5.436;2022-07-23T00:24:22;9.98;;;8.75;;
64641;SDS011;59936;51.490;5.436;2022-07-23T00:24:28;9.93;;;8.60;;
64641;SDS011;59936;51.490;5.436;2022-07-23T00:24:33;11.13;;;8.68;;
64641;SDS011;59936;51.490;5.436;2022-07-23T00:24:39;10.67;;;8.50;;
64641;SDS011;59936;51.490;5.436;2022-07-23T00:24:44;11.13;;;8.40;;
64641;SDS011;59936;51.490;5.436;2022-07-23T00:24:49;12.30;;;8.27;;
64641;SDS011;59936;51.490;5.436;2022-07-23T00:24:56;11.95;;;8.18;;
64641;SDS011;59936;51.490;5.436;2022-07-23T00:25:01;12.30;;;8.40;;
64641;SDS011;59936;51.490;5.436;2022-07-23T00:25:07;12.20;;;8.40;;
64641;SDS011;59936;51.490;5.436;2022-07-23T00:25:12;12.32;;;8.48;;
64641;SDS011;59936;51.490;5.436;2022-07-23T00:25:19;12.70;;;8.55;;
64641;SDS011;59936;51.490;5.436;2022-07-23T00:25:27;13.53;;;8.78;;
64641;SDS011;59936;51.490;5.436;2022-07-23T00:25:32;13.77;;;8.88;;
64641;SDS011;59936;51.490;5.436;2022-07-23T00:25:37;13.23;;;9.03;;
64641;SDS011;59936;51.490;5.436;2022-07-23T00:25:43;12.80;;;9.18;;
64641;SDS011;59936;51.490;5.436;2022-07-23T00:25:50;12.13;;;9.23;;
64641;SDS011;59936;51.490;5.436;2022-07-23T00:25:56;12.24;;;9.26;;
64641;SDS011;59936;51.490;5.436;2022-07-23T00:26:02;12.10;;;9.18;;
64641;SDS011;59936;51.490;5.436;2022-07-23T00:26:08;12.30;;;9.17;;
64641;SDS011;59936;51.490;5.436;2022-07-23T00:26:13;11.95;;;8.93;;
64641;SDS011;59936;51.490;5.436;2022-07-23T00:26:18;12.00;;;8.93;;
64641;SDS011;59936;51.490;5.436;2022-07-23T00:26:24;11.55;;;8.77;;
64641;SDS011;59936;51.490;5.436;2022-07-23T00:26:29;11.13;;;8.63;;
64641;SDS011;59936;51.490;5.436;2022-07-23T00:26:34;10.27;;;8.47;;
64641;SDS011;59936;51.490;5.436;2022-07-23T00:26:40;10.45;;;8.48;;
64641;SDS011;59936;51.490;5.436;2022-07-23T00:26:45;11.13;;;8.50;;
64641;SDS011;59936;51.490;5.436;2022-07-23T00:26:51;11.00;;;8.43;;
64641;SDS011;59936;51.490;5.436;2022-07-23T00:26:56;10.80;;;8.30;;
64641;SDS011;59936;51.490;5.436;2022-07-23T00:27:02;11.50;;;8.50;;
64641;SDS011;59936;51.490;5.436;2022-07-23T00:27:07;11.95;;;8.57;;
64641;SDS011;59936;51.490;5.436;2022-07-23T00:27:12;11.80;;;8.53;;
64641;SDS011;59936;51.490;5.436;2022-07-23T00:27:18;11.75;;;8.50;;
64641;SDS011;59936;51.490;5.436;2022-07-23T00:27:23;12.60;;;8.60;;
64641;SDS011;59936;51.490;5.436;2022-07-23T00:27:29;13.52;;;8.77;;
64641;SDS011;59936;51.490;5.436;2022-07-23T00:27:34;13.50;;;8.77;;
64641;SDS011;59936;51.490;5.436;2022-07-23T00:27:40;12.93;;;8.80;;
64641;SDS011;59936;51.490;5.436;2022-07-23T00:27:45;13.83;;;8.97;;
64641;SDS011;59936;51.490;5.436;2022-07-23T00:27:50;12.93;;;9.07;;
64641;SDS011;59936;51.490;5.436;2022-07-23T00:27:56;11.88;;;9.00;;
64641;SDS011;59936;51.490;5.436;2022-07-23T00:28:03;11.33;;;8.93;;
64641;SDS011;59936;51.490;5.436;2022-07-23T00:28:10;11.50;;;8.90;;
64641;SDS011;59936;51.490;5.436;2022-07-23T00:28:16;11.37;;;9.00;;
64641;SDS011;59936;51.490;5.436;2022-07-23T00:28:21;11.17;;;9.03;;
64641;SDS011;59936;51.490;5.436;2022-07-23T00:28:26;11.20;;;9.10;;
64641;SDS011;59936;51.490;5.436;2022-07-23T00:28:32;11.10;;;9.18;;
64641;SDS011;59936;51.490;5.436;2022-07-23T00:28:37;10.90;;;9.30;;
64641;SDS011;59936;51.490;5.436;2022-07-23T00:28:42;10.97;;;9.30;;
64641;SDS011;59936;51.490;5.436;2022-07-23T00:28:48;10.68;;;8.85;;
64641;SDS011;59936;51.490;5.436;2022-07-23T00:28:53;10.73;;;8.57;;
64641;SDS011;59936;51.490;5.436;2022-07-23T00:28:59;10.83;;;8.50;;
64641;SDS011;59936;51.490;5.436;2022-07-23T00:29:04;11.40;;;8.43;;
64641;SDS011;59936;51.490;5.436;2022-07-23T00:29:10;11.25;;;8.40;;
64641;SDS011;59936;51.490;5.436;2022-07-23T00:29:15;11.63;;;8.50;;
64641;SDS011;59936;51.490;5.436;2022-07-23T00:29:20;12.07;;;8.63;;
64641;SDS011;59936;51.490;5.436;2022-07-23T00:29:26;12.27;;;8.85;;
64641;SDS011;59936;51.490;5.436;2022-07-23T00:29:31;12.37;;;8.97;;
64641;SDS011;59936;51.490;5.436;2022-07-23T00:29:37;11.90;;;8.80;;
64641;SDS011;59936;51.490;5.436;2022-07-23T00:29:45;12.04;;;8.87;;
64641;SDS011;59936;51.490;5.436;2022-07-23T00:29:50;11.70;;;9.10;;
64641;SDS011;59936;51.490;5.436;2022-07-23T00:29:56;11.77;;;9.05;;
64641;SDS011;59936;51.490;5.436;2022-07-23T00:30:01;11.43;;;9.00;;
64641;SDS011;59936;51.490;5.436;2022-07-23T00:30:07;11.63;;;9.15;;
64641;SDS011;59936;51.490;5.436;2022-07-23T00:30:13;11.73;;;9.10;;
64641;SDS011;59936;51.490;5.436;2022-07-23T00:30:19;11.35;;;9.05;;
64641;SDS011;59936;51.490;5.436;2022-07-23T00:30:24;11.30;;;9.00;;
64641;SDS011;59936;51.490;5.436;2022-07-23T00:30:31;10.82;;;9.10;;
64641;SDS011;59936;51.490;5.436;2022-07-23T00:30:37;10.86;;;9.04;;
64641;SDS011;59936;51.490;5.436;2022-07-23T00:30:43;10.23;;;8.95;;
64641;SDS011;59936;51.490;5.436;2022-07-23T00:30:49;9.98;;;8.88;;
64641;SDS011;59936;51.490;5.436;2022-07-23T00:30:54;10.40;;;8.80;;
64641;SDS011;59936;51.490;5.436;2022-07-23T00:30:59;11.95;;;8.77;;
64641;SDS011;59936;51.490;5.436;2022-07-23T00:31:05;12.97;;;8.83;;
64641;SDS011;59936;51.490;5.436;2022-07-23T00:31:10;13.07;;;8.83;;
64641;SDS011;59936;51.490;5.436;2022-07-23T00:31:16;13.00;;;8.88;;
64641;SDS011;59936;51.490;5.436;2022-07-23T00:31:21;13.10;;;8.95;;
64641;SDS011;59936;51.490;5.436;2022-07-23T00:31:27;12.80;;;8.90;;
64641;SDS011;59936;51.490;5.436;2022-07-23T00:31:32;10.43;;;8.80;;
64641;SDS011;59936;51.490;5.436;2022-07-23T00:31:38;12.27;;;8.98;;
64641;SDS011;59936;51.490;5.436;2022-07-23T00:31:43;12.33;;;9.10;;
64641;SDS011;59936;51.490;5.436;2022-07-23T00:31:48;12.45;;;9.02;;
64641;SDS011;59936;51.490;5.436;2022-07-23T00:31:54;11.97;;;8.90;;
64641;SDS011;59936;51.490;5.436;2022-07-23T00:31:59;13.13;;;9.00;;
64641;SDS011;59936;51.490;5.436;2022-07-23T00:32:05;12.90;;;8.95;;
64641;SDS011;59936;51.490;5.436;2022-07-23T00:32:10;12.43;;;8.90;;
64641;SDS011;59936;51.490;5.436;2022-07-23T00:32:16;12.88;;;8.95;;
64641;SDS011;59936;51.490;5.436;2022-07-23T00:32:21;13.47;;;9.00;;
64641;SDS011;59936;51.490;5.436;2022-07-23T00:32:26;12.95;;;8.82;;
64641;SDS011;59936;51.490;5.436;2022-07-23T00:32:32;11.53;;;8.80;;
64641;SDS011;59936;51.490;5.436;2022-07-23T00:32:48;11.25;;;8.60;;
64641;SDS011;59936;51.490;5.436;2022-07-23T00:32:59;10.32;;;8.48;;
64641;SDS011;59936;51.490;5.436;2022-07-23T00:33:11;10.11;;;8.44;;
64641;SDS011;59936;51.490;5.436;2022-07-23T00:33:16;10.32;;;8.40;;
64641;SDS011;59936;51.490;5.436;2022-07-23T00:33:22;11.13;;;8.50;;
64641;SDS011;59936;51.490;5.436;2022-07-23T00:33:27;11.98;;;8.68;;
64641;SDS011;59936;51.490;5.436;2022-07-23T00:33:33;11.53;;;8.60;;
64641;SDS011;59936;51.490;5.436;2022-07-23T00:33:38;11.60;;;8.63;;
64641;SDS011;59936;51.490;5.436;2022-07-23T00:33:43;11.32;;;8.70;;
64641;SDS011;59936;51.490;5.436;2022-07-23T00:33:49;12.20;;;8.90;;
64641;SDS011;59936;51.490;5.436;2022-07-23T00:33:54;10.60;;;8.87;;